Time;durP1;ratioP1;P1;durP2;ratioP2;P2;SDS_P1;SDS_P2;PMS_P1;PMS_P2;Temp;Humidity;BMP_temperature;BMP_pressure;BME280_temperature;BME280_humidity;BME280_pressure;Samples;Min_cycle;Max_cycle;Signal;HPM_P1;HPM_P2
2022/01/20 00:02:16;;;;;;;;;;;4.00;99.90;;;;;;5114557;28;19931;-59
2022/01/20 00:04:49;;;;;;;;;;;4.00;99.90;;;;;;5096222;28;20361;-61
2022/01/20 00:07:29;;;;;;;;;;;4.00;99.90;;;;;;5114587;28;20004;-59
2022/01/20 00:28:21;;;;;;;;;;;4.00;99.90;;;;;;5114228;28;20397;-59
2022/01/20 00:31:04;;;;;;;;;;;4.00;99.90;;;;;;5112806;28;19924;-61
2022/01/20 00:33:40;;;;;;;;;;;4.00;99.90;;;;;;5113644;28;19924;-59
2022/01/20 00:38:35;;;;;;;;;;;4.00;99.90;;;;;;5113085;28;19996;-59
2022/01/20 00:41:01;;;;;;;;;;;4.00;99.90;;;;;;5112177;28;20258;-59
2022/01/20 00:43:26;;;;;;;;;;;4.00;99.90;;;;;;5111930;28;19930;-59
2022/01/20 00:45:52;;;;;;;;;;;4.00;99.90;;;;;;5113248;28;19924;-59
2022/01/20 00:48:18;;;;;;;;;;;4.00;99.90;;;;;;5113569;28;19924;-59
2022/01/20 00:50:43;;;;;;;;;;;4.00;99.90;;;;;;5113181;28;19931;-59
2022/01/20 00:53:09;;;;;;;;;;;4.00;99.90;;;;;;5112524;28;19919;-59
2022/01/20 00:55:37;;;;;;;;;;;4.00;99.90;;;;;;5113650;28;19924;-59
2022/01/20 00:58:02;;;;;;;;;;;4.10;99.90;;;;;;5113283;28;19923;-59
2022/01/20 01:00:28;;;;;;;;;;;4.10;99.90;;;;;;5113463;28;19923;-59
2022/01/20 01:02:55;;;;;;;;;;;4.20;99.90;;;;;;5113087;28;19942;-59
2022/01/20 01:05:21;;;;;;;;;;;4.20;99.90;;;;;;5113261;28;19930;-60
2022/01/20 01:10:14;;;;;;;;;;;4.20;99.90;;;;;;5111996;28;19966;-59
2022/01/20 01:13:03;;;;;;;;;;;4.10;99.90;;;;;;5113335;28;19924;-59
2022/01/20 01:15:35;;;;;;;;;;;4.00;99.90;;;;;;5112278;28;19976;-60
2022/01/20 01:23:36;;;;;;;;;;;3.90;99.90;;;;;;5112211;28;20292;-60
2022/01/20 01:26:22;;;;;;;;;;;3.90;99.90;;;;;;5111811;27;19923;-59
2022/01/20 01:28:49;;;;;;;;;;;3.90;99.90;;;;;;5112727;28;19927;-59
2022/01/20 01:34:08;;;;;;;;;;;3.80;99.90;;;;;;5112045;28;19923;-59
2022/01/20 01:36:49;;;;;;;;;;;3.70;99.90;;;;;;5112731;28;20246;-59
2022/01/20 01:39:15;;;;;;;;;;;3.70;99.90;;;;;;5111537;28;19996;-59
2022/01/20 01:41:41;;;;;;;;;;;3.80;99.90;;;;;;5112823;28;19924;-59
2022/01/20 01:44:09;;;;;;;;;;;3.70;99.90;;;;;;5112098;28;19930;-59
2022/01/20 01:46:35;;;;;;;;;;;3.70;99.90;;;;;;5112504;28;19932;-59
2022/01/20 01:49:01;;;;;;;;;;;3.70;99.90;;;;;;5112014;28;19930;-59
2022/01/20 01:51:27;;;;;;;;;;;3.70;99.90;;;;;;5111404;28;20010;-59
2022/01/20 01:53:52;;;;;;;;;;;3.70;99.90;;;;;;5112723;28;19929;-59
2022/01/20 01:56:18;;;;;;;;;;;3.70;99.90;;;;;;5112047;28;20014;-59
2022/01/20 01:58:44;;;;;;;;;;;3.70;99.90;;;;;;5111298;28;20382;-59
2022/01/20 02:01:09;;;;;;;;;;;3.70;99.90;;;;;;5111703;28;19974;-59
2022/01/20 02:03:43;;;;;;;;;;;3.70;99.90;;;;;;5094598;28;19927;-59
2022/01/20 02:06:39;;;;;;;;;;;3.70;99.90;;;;;;5111929;28;19924;-59
2022/01/20 02:20:00;;;;;;;;;;;4.10;99.90;;;;;;5111966;28;19924;-61
2022/01/20 02:22:26;;;;;;;;;;;3.90;99.90;;;;;;5112365;28;20361;-59
2022/01/20 02:24:52;;;;;;;;;;;3.80;99.90;;;;;;5110843;28;20420;-59
2022/01/20 02:27:17;;;;;;;;;;;3.70;99.90;;;;;;5111610;28;20010;-59
2022/01/20 02:29:43;;;;;;;;;;;3.60;99.90;;;;;;5112116;28;20016;-59
2022/01/20 02:32:09;;;;;;;;;;;3.50;99.90;;;;;;5093891;28;19924;-59
2022/01/20 02:34:35;;;;;;;;;;;3.50;99.90;;;;;;5114147;28;20000;-60
2022/01/20 02:37:05;;;;;;;;;;;3.60;99.90;;;;;;5116456;28;19969;-60
2022/01/20 02:44:54;;;;;;;;;;;3.70;99.90;;;;;;5114987;28;19924;-59
2022/01/20 02:47:30;;;;;;;;;;;3.70;99.90;;;;;;5114816;28;19931;-59
2022/01/20 02:49:56;;;;;;;;;;;4.00;99.90;;;;;;5114206;28;19978;-59
2022/01/20 02:52:23;;;;;;;;;;;3.80;99.90;;;;;;5115512;28;19979;-59
2022/01/20 02:54:50;;;;;;;;;;;3.90;99.90;;;;;;5116062;28;19927;-60
2022/01/20 02:57:16;;;;;;;;;;;3.90;99.90;;;;;;5114540;28;19923;-60
2022/01/20 02:59:42;;;;;;;;;;;4.00;99.90;;;;;;5115900;28;19977;-60
2022/01/20 03:02:09;;;;;;;;;;;4.00;99.90;;;;;;5115244;28;19923;-61
2022/01/20 03:04:34;;;;;;;;;;;4.00;99.90;;;;;;5114448;28;19928;-60
2022/01/20 03:07:00;;;;;;;;;;;4.00;99.90;;;;;;5115831;28;19923;-60
2022/01/20 03:09:26;;;;;;;;;;;3.90;99.90;;;;;;5115147;28;20002;-60
2022/01/20 03:11:51;;;;;;;;;;;3.80;99.90;;;;;;5115513;28;19924;-60
2022/01/20 03:14:17;;;;;;;;;;;3.80;99.90;;;;;;5115240;28;20038;-60
2022/01/20 03:16:44;;;;;;;;;;;3.70;99.90;;;;;;5115527;28;19975;-60
2022/01/20 03:19:10;;;;;;;;;;;3.70;99.90;;;;;;5115124;28;19924;-61
2022/01/20 03:21:36;;;;;;;;;;;3.60;99.90;;;;;;5115543;28;19931;-60
2022/01/20 03:24:01;;;;;;;;;;;3.60;99.90;;;;;;5115455;28;19977;-60
2022/01/20 03:26:27;;;;;;;;;;;3.60;99.90;;;;;;5114945;28;20018;-60
2022/01/20 03:28:53;;;;;;;;;;;3.60;99.90;;;;;;5114602;28;20365;-61
2022/01/20 03:31:18;;;;;;;;;;;3.60;99.90;;;;;;5113624;28;19930;-61
2022/01/20 03:33:44;;;;;;;;;;;3.70;99.90;;;;;;5114058;28;19932;-59
2022/01/20 03:36:10;;;;;;;;;;;3.60;99.90;;;;;;5114762;28;20441;-63
2022/01/20 03:38:35;;;;;;;;;;;3.70;99.90;;;;;;5114990;28;20021;-60
2022/01/20 03:41:01;;;;;;;;;;;3.80;99.90;;;;;;5113746;28;20014;-61
2022/01/20 03:43:27;;;;;;;;;;;3.80;99.90;;;;;;5114415;28;19923;-60
2022/01/20 03:45:56;;;;;;;;;;;3.70;99.90;;;;;;5112913;28;20355;-60
2022/01/20 03:48:24;;;;;;;;;;;3.70;99.90;;;;;;5113618;28;20335;-60
2022/01/20 03:51:02;;;;;;;;;;;3.60;99.90;;;;;;5113464;28;20292;-60
2022/01/20 03:53:29;;;;;;;;;;;3.60;99.90;;;;;;5114433;28;19930;-60
2022/01/20 03:55:55;;;;;;;;;;;3.50;99.90;;;;;;5114557;28;19944;-60
2022/01/20 03:58:21;;;;;;;;;;;3.40;99.90;;;;;;5113366;28;19974;-60
2022/01/20 04:00:47;;;;;;;;;;;3.30;99.90;;;;;;5113414;28;19955;-59
2022/01/20 04:03:13;;;;;;;;;;;3.30;99.90;;;;;;5113512;28;19924;-61
2022/01/20 04:05:50;;;;;;;;;;;3.30;99.90;;;;;;5112946;28;19980;-61
2022/01/20 04:08:16;;;;;;;;;;;3.40;99.90;;;;;;5113073;28;19972;-62
2022/01/20 04:10:42;;;;;;;;;;;3.40;99.90;;;;;;5114319;28;19924;-60
2022/01/20 04:13:09;;;;;;;;;;;3.40;99.90;;;;;;5113977;28;20279;-60
2022/01/20 04:15:38;;;;;;;;;;;3.40;99.90;;;;;;5112809;28;19973;-60
2022/01/20 04:18:08;;;;;;;;;;;3.40;99.90;;;;;;5113271;28;20018;-60
2022/01/20 04:20:34;;;;;;;;;;;3.40;99.90;;;;;;5095642;28;19928;-60
2022/01/20 04:23:00;;;;;;;;;;;3.50;99.90;;;;;;5113344;28;19924;-60
2022/01/20 04:25:25;;;;;;;;;;;3.50;99.90;;;;;;5112508;28;19931;-60
2022/01/20 04:27:51;;;;;;;;;;;3.50;99.90;;;;;;5113154;28;20023;-60
2022/01/20 04:30:16;;;;;;;;;;;3.50;99.90;;;;;;5114065;28;19927;-62
2022/01/20 04:32:42;;;;;;;;;;;3.60;99.90;;;;;;5113750;28;19988;-60
2022/01/20 04:35:08;;;;;;;;;;;3.60;99.90;;;;;;5114067;28;20379;-60
2022/01/20 04:37:33;;;;;;;;;;;3.60;99.90;;;;;;5113122;28;19924;-60
2022/01/20 04:40:02;;;;;;;;;;;3.60;99.90;;;;;;5112774;28;19924;-60
2022/01/20 04:42:29;;;;;;;;;;;3.60;99.90;;;;;;5113518;28;19930;-60
2022/01/20 04:45:00;;;;;;;;;;;3.50;99.90;;;;;;5114170;28;20292;-60
2022/01/20 04:58:09;;;;;;;;;;;3.00;99.90;;;;;;5113414;28;19927;-60
2022/01/20 05:00:35;;;;;;;;;;;3.10;99.90;;;;;;5113043;28;19924;-58
2022/01/20 05:03:04;;;;;;;;;;;2.90;99.90;;;;;;5112207;28;19924;-61
2022/01/20 05:05:29;;;;;;;;;;;2.90;99.90;;;;;;5095459;28;19924;-61
2022/01/20 05:07:55;;;;;;;;;;;2.90;99.90;;;;;;5113439;28;20544;-60
2022/01/20 05:10:20;;;;;;;;;;;2.90;99.90;;;;;;5113318;28;19928;-61
2022/01/20 05:15:14;;;;;;;;;;;2.80;99.90;;;;;;5113341;28;19928;-60
2022/01/20 05:17:40;;;;;;;;;;;2.80;99.90;;;;;;5112837;28;19930;-60
2022/01/20 05:20:06;;;;;;;;;;;2.70;99.90;;;;;;5113015;28;20258;-60
2022/01/20 05:22:31;;;;;;;;;;;2.60;99.90;;;;;;5111400;28;20010;-60
2022/01/20 05:24:57;;;;;;;;;;;2.50;99.90;;;;;;5113175;28;19969;-59
2022/01/20 05:27:23;;;;;;;;;;;2.50;99.90;;;;;;5112969;28;19924;-59
2022/01/20 05:29:48;;;;;;;;;;;2.40;99.90;;;;;;5112663;28;20391;-59
2022/01/20 05:32:14;;;;;;;;;;;2.40;99.90;;;;;;5113060;28;19928;-59
2022/01/20 05:34:39;;;;;;;;;;;2.70;99.90;;;;;;5111315;28;20406;-59
2022/01/20 05:37:05;;;;;;;;;;;2.30;99.90;;;;;;5112047;28;19928;-59
2022/01/20 05:39:31;;;;;;;;;;;2.40;99.90;;;;;;5111199;28;20483;-59
2022/01/20 05:41:56;;;;;;;;;;;2.40;99.90;;;;;;5112326;28;20060;-59
2022/01/20 05:44:22;;;;;;;;;;;2.40;99.90;;;;;;5112573;28;19931;-61
2022/01/20 05:46:49;;;;;;;;;;;2.50;99.90;;;;;;5112266;28;19936;-61
2022/01/20 05:49:20;;;;;;;;;;;2.70;99.90;;;;;;5112596;28;19930;-61
2022/01/20 05:51:52;;;;;;;;;;;2.60;99.90;;;;;;5112072;28;19931;-59
2022/01/20 05:54:19;;;;;;;;;;;2.50;99.90;;;;;;5111509;28;19924;-59
2022/01/20 05:56:44;;;;;;;;;;;2.60;99.90;;;;;;5112155;28;19928;-59
2022/01/20 05:59:10;;;;;;;;;;;2.60;99.90;;;;;;5112630;28;19947;-59
2022/01/20 06:01:37;;;;;;;;;;;2.60;99.90;;;;;;5112020;28;20305;-59
2022/01/20 06:04:05;;;;;;;;;;;2.70;99.90;;;;;;5111384;28;19924;-59
2022/01/20 06:06:31;;;;;;;;;;;2.70;99.90;;;;;;5112191;28;19927;-61
2022/01/20 06:08:57;;;;;;;;;;;2.80;99.90;;;;;;5112192;28;19924;-59
2022/01/20 06:11:23;;;;;;;;;;;2.80;99.90;;;;;;5110962;28;19993;-60
2022/01/20 06:13:48;;;;;;;;;;;2.80;99.90;;;;;;5111959;28;19968;-59
2022/01/20 06:16:14;;;;;;;;;;;2.90;99.90;;;;;;5112375;28;19928;-59
2022/01/20 06:18:40;;;;;;;;;;;2.90;99.90;;;;;;5111845;28;19927;-59
2022/01/20 06:21:05;;;;;;;;;;;3.00;99.90;;;;;;5112290;28;20478;-60
2022/01/20 06:23:31;;;;;;;;;;;3.10;99.90;;;;;;5112218;28;19924;-59
2022/01/20 06:25:57;;;;;;;;;;;3.10;99.90;;;;;;5111687;28;19947;-59
2022/01/20 06:28:22;;;;;;;;;;;3.00;99.90;;;;;;5112047;28;19943;-59
2022/01/20 06:30:48;;;;;;;;;;;3.00;99.90;;;;;;5111641;28;19930;-59
2022/01/20 06:33:13;;;;;;;;;;;2.80;99.90;;;;;;5110872;28;19931;-60
2022/01/20 06:35:39;;;;;;;;;;;2.60;99.90;;;;;;5110710;28;20358;-59
2022/01/20 06:38:05;;;;;;;;;;;2.50;99.90;;;;;;5110926;28;19973;-59
2022/01/20 06:40:31;;;;;;;;;;;2.40;99.90;;;;;;5112228;28;19930;-59
2022/01/20 06:42:57;;;;;;;;;;;2.30;99.90;;;;;;5110430;28;19931;-59
2022/01/20 06:45:23;;;;;;;;;;;2.30;99.90;;;;;;5112084;28;19928;-59
2022/01/20 06:47:49;;;;;;;;;;;2.30;99.90;;;;;;5110434;28;19930;-59
2022/01/20 06:50:15;;;;;;;;;;;2.30;99.90;;;;;;5110615;28;19924;-59
2022/01/20 06:52:41;;;;;;;;;;;2.60;99.90;;;;;;5110387;28;19928;-59
2022/01/20 06:55:10;;;;;;;;;;;2.20;99.90;;;;;;5110544;28;19931;-59
2022/01/20 06:57:36;;;;;;;;;;;2.20;99.90;;;;;;5112022;28;19924;-58
2022/01/20 07:00:03;;;;;;;;;;;2.40;99.90;;;;;;5110499;28;20073;-59
2022/01/20 07:02:29;;;;;;;;;;;2.20;99.90;;;;;;5111673;28;20384;-59
2022/01/20 07:04:54;;;;;;;;;;;2.20;99.90;;;;;;5111089;28;19992;-59
2022/01/20 07:07:20;;;;;;;;;;;2.20;99.90;;;;;;5111976;28;19924;-59
2022/01/20 07:09:46;;;;;;;;;;;2.20;99.90;;;;;;5111419;28;20018;-59
2022/01/20 07:12:11;;;;;;;;;;;2.30;99.90;;;;;;5111821;28;19931;-59
2022/01/20 07:14:37;;;;;;;;;;;2.30;99.90;;;;;;5111622;28;19931;-59
2022/01/20 07:17:04;;;;;;;;;;;2.40;99.90;;;;;;5111046;28;20442;-58
2022/01/20 07:19:29;;;;;;;;;;;2.40;99.90;;;;;;5110418;28;20372;-60
2022/01/20 07:21:55;;;;;;;;;;;2.50;99.90;;;;;;5112381;28;19930;-59
2022/01/20 07:24:20;;;;;;;;;;;2.60;99.90;;;;;;5097334;28;19924;-59
2022/01/20 07:26:46;;;;;;;;;;;2.50;99.90;;;;;;5114530;28;19928;-59
2022/01/20 07:29:12;;;;;;;;;;;2.60;99.90;;;;;;5114669;28;19924;-59
2022/01/20 07:31:37;;;;;;;;;;;2.50;99.90;;;;;;5114954;28;19927;-59
2022/01/20 07:34:03;;;;;;;;;;;2.50;99.90;;;;;;5114464;28;19920;-59
2022/01/20 07:36:29;;;;;;;;;;;2.40;99.90;;;;;;5114293;28;20369;-59
2022/01/20 07:38:54;;;;;;;;;;;2.40;99.90;;;;;;5114352;28;19927;-60
2022/01/20 07:41:20;;;;;;;;;;;2.30;99.90;;;;;;5113456;28;19928;-59
2022/01/20 07:43:46;;;;;;;;;;;2.30;99.90;;;;;;5114474;28;20022;-59
2022/01/20 07:46:11;;;;;;;;;;;2.30;99.90;;;;;;5113974;28;19967;-59
2022/01/20 07:48:37;;;;;;;;;;;2.30;99.90;;;;;;5114362;28;19924;-59
2022/01/20 07:51:03;;;;;;;;;;;2.20;99.90;;;;;;5114037;28;20252;-59
2022/01/20 07:53:28;;;;;;;;;;;2.10;99.90;;;;;;5113609;28;20292;-59
2022/01/20 07:55:54;;;;;;;;;;;2.00;99.90;;;;;;5112855;28;19928;-59
2022/01/20 07:58:19;;;;;;;;;;;2.00;99.90;;;;;;5114789;28;20190;-59
2022/01/20 08:00:45;;;;;;;;;;;2.00;99.90;;;;;;5114404;28;19934;-61
2022/01/20 08:03:11;;;;;;;;;;;2.00;99.90;;;;;;5114538;28;19924;-60
2022/01/20 08:05:37;;;;;;;;;;;2.00;99.90;;;;;;5113430;28;20376;-60
2022/01/20 08:08:02;;;;;;;;;;;2.30;99.90;;;;;;5113203;28;19959;-60
2022/01/20 08:10:28;;;;;;;;;;;2.00;99.90;;;;;;5113258;28;19924;-59
2022/01/20 08:12:54;;;;;;;;;;;2.00;99.90;;;;;;5114099;28;19928;-59
2022/01/20 08:15:20;;;;;;;;;;;2.10;99.90;;;;;;5113287;28;20438;-59
2022/01/20 08:17:47;;;;;;;;;;;2.10;99.90;;;;;;5114461;27;20007;-60
2022/01/20 08:20:13;;;;;;;;;;;2.10;99.90;;;;;;5113139;28;19975;-59
2022/01/20 08:22:38;;;;;;;;;;;2.20;99.90;;;;;;5114366;28;20010;-60
2022/01/20 08:25:06;;;;;;;;;;;2.70;99.90;;;;;;5113872;28;19968;-59
2022/01/20 08:27:31;;;;;;;;;;;2.40;99.90;;;;;;5113925;28;20292;-60
2022/01/20 08:29:57;;;;;;;;;;;2.50;99.90;;;;;;5111919;28;19924;-61
2022/01/20 08:32:23;;;;;;;;;;;2.50;99.90;;;;;;5113375;28;19924;-60
2022/01/20 08:34:48;;;;;;;;;;;2.60;99.90;;;;;;5112416;28;19924;-61
2022/01/20 08:37:14;;;;;;;;;;;2.60;99.90;;;;;;5113081;28;19927;-63
2022/01/20 08:39:40;;;;;;;;;;;2.60;99.90;;;;;;5112506;28;19923;-63
2022/01/20 08:42:06;;;;;;;;;;;2.70;99.90;;;;;;5112798;28;19924;-62
2022/01/20 08:44:32;;;;;;;;;;;2.90;99.90;;;;;;5112167;28;19924;-62
2022/01/20 08:46:58;;;;;;;;;;;3.00;99.90;;;;;;5111673;28;19976;-62
2022/01/20 08:49:24;;;;;;;;;;;3.10;99.90;;;;;;5094752;28;19924;-63
2022/01/20 08:51:50;;;;;;;;;;;2.80;99.90;;;;;;5112803;28;19924;-62
2022/01/20 08:54:16;;;;;;;;;;;2.60;99.90;;;;;;5112715;28;19990;-63
2022/01/20 08:56:42;;;;;;;;;;;2.40;99.90;;;;;;5113203;28;19941;-63
2022/01/20 08:59:08;;;;;;;;;;;2.40;99.90;;;;;;5111766;28;19923;-63
2022/01/20 09:01:35;;;;;;;;;;;2.40;99.90;;;;;;5112107;28;19978;-63
2022/01/20 09:04:00;;;;;;;;;;;2.30;99.90;;;;;;5112544;28;19924;-63
2022/01/20 09:06:26;;;;;;;;;;;2.20;99.90;;;;;;5112700;28;20011;-65
2022/01/20 09:08:52;;;;;;;;;;;2.20;99.90;;;;;;5113133;28;20299;-63
2022/01/20 09:11:19;;;;;;;;;;;2.20;99.90;;;;;;5112469;28;20380;-63
2022/01/20 09:16:30;;;;;;;;;;;2.40;99.90;;;;;;5113025;28;20336;-63
2022/01/20 09:18:55;;;;;;;;;;;2.50;99.90;;;;;;5112838;28;19975;-64
2022/01/20 09:21:23;;;;;;;;;;;2.40;99.90;;;;;;5112602;28;19930;-63
2022/01/20 09:23:49;;;;;;;;;;;2.30;99.90;;;;;;5111736;28;19924;-63
2022/01/20 09:26:15;;;;;;;;;;;2.30;99.90;;;;;;5112454;28;19931;-63
2022/01/20 09:28:41;;;;;;;;;;;2.20;99.90;;;;;;5112854;28;19931;-63
2022/01/20 09:31:07;;;;;;;;;;;2.20;99.90;;;;;;5112295;28;19923;-63
2022/01/20 09:33:33;;;;;;;;;;;2.20;99.90;;;;;;5112770;28;20018;-63
2022/01/20 09:35:59;;;;;;;;;;;2.20;99.90;;;;;;5112455;28;19982;-64
2022/01/20 09:38:25;;;;;;;;;;;2.40;99.90;;;;;;5112385;28;19976;-62
2022/01/20 09:40:51;;;;;;;;;;;2.50;99.90;;;;;;5111450;28;20379;-63
2022/01/20 09:43:17;;;;;;;;;;;2.60;99.90;;;;;;5111676;28;19939;-62
2022/01/20 09:45:48;;;;;;;;;;;2.70;99.90;;;;;;5112418;28;19924;-62
2022/01/20 09:48:15;;;;;;;;;;;2.90;99.90;;;;;;5112323;28;20121;-62
2022/01/20 09:50:41;;;;;;;;;;;3.20;99.90;;;;;;5112423;28;19931;-63
2022/01/20 09:53:06;;;;;;;;;;;3.40;99.90;;;;;;5108763;28;19924;-63
2022/01/20 09:55:34;;;;;;;;;;;3.50;99.90;;;;;;5110523;28;19936;-62
2022/01/20 09:58:00;;;;;;;;;;;3.50;99.90;;;;;;5112058;28;19924;-64
2022/01/20 10:00:26;;;;;;;;;;;3.50;99.90;;;;;;5110662;28;19978;-62
2022/01/20 10:02:53;;;;;;;;;;;3.40;99.90;;;;;;5111345;28;19981;-62
2022/01/20 10:05:30;;;;;;;;;;;3.40;99.90;;;;;;5111550;28;19924;-63
2022/01/20 10:08:03;;;;;;;;;;;3.50;99.90;;;;;;5094384;28;19930;-63
2022/01/20 10:10:36;;;;;;;;;;;3.60;99.90;;;;;;5111186;28;19924;-63
2022/01/20 10:13:05;;;;;;;;;;;3.70;99.90;;;;;;5112095;28;19969;-64
2022/01/20 10:15:31;;;;;;;;;;;3.70;99.90;;;;;;5110712;28;20253;-64
2022/01/20 10:18:03;;;;;;;;;;;3.80;99.90;;;;;;5110874;28;19931;-62
2022/01/20 10:20:29;;;;;;;17.38;4.07;;;3.80;99.90;;;;;;5111449;28;19931;-62
2022/01/20 10:22:56;;;;;;;17.75;3.80;;;3.80;99.90;;;;;;5111403;28;20039;-62
2022/01/20 10:25:24;;;;;;;20.30;2.75;;;3.70;99.90;;;;;;5109785;28;20488;-62
2022/01/20 10:27:57;;;;;;;14.32;3.00;;;3.70;99.90;;;;;;5111470;28;20044;-62
2022/01/20 10:30:26;;;;;;;22.65;3.50;;;3.70;99.90;;;;;;5109495;28;20039;-63
2022/01/20 10:32:56;;;;;;;6.95;3.15;;;3.70;99.90;;;;;;5093585;28;20062;-65
2022/01/20 10:35:28;;;;;;;18.40;3.67;;;3.60;99.90;;;;;;5110984;28;20413;-62
2022/01/20 10:38:02;;;;;;;17.77;3.30;;;3.70;99.90;;;;;;5110238;28;20048;-63
2022/01/20 10:40:28;;;;;;;;;;;3.70;99.90;;;;;;5109962;28;20533;-63
2022/01/20 10:42:54;;;;;;;;;;;3.80;99.90;;;;;;5111047;28;19927;-62
2022/01/20 10:45:27;;;;;;;;;;;3.90;99.90;;;;;;5110365;28;20377;-62
2022/01/20 10:47:53;;;;;;;;;;;3.90;99.90;;;;;;5112105;28;19924;-64
2022/01/20 10:50:22;;;;;;;;;;;3.90;99.90;;;;;;5111132;28;20338;-63
2022/01/20 10:52:49;;;;;;;;;;;3.90;99.90;;;;;;5111673;28;19969;-62
2022/01/20 10:55:34;;;;;;;;;;;3.90;99.90;;;;;;5112805;28;19927;-63
2022/01/20 10:58:16;;;;;;;;;;;3.90;99.90;;;;;;5115966;28;19930;-62
2022/01/20 11:00:44;;;;;;;;;;;3.90;99.90;;;;;;5115596;28;19924;-61
2022/01/20 11:03:10;;;;;;;;;;;3.90;99.90;;;;;;5115525;27;19923;-65
2022/01/20 11:05:35;;;;;;;;;;;4.00;99.90;;;;;;5115343;28;19930;-62
2022/01/20 11:08:01;;;;;;;;;;;4.00;99.90;;;;;;5115466;28;19934;-63
2022/01/20 11:10:27;;;;;;;;;;;4.10;99.90;;;;;;5097112;28;19975;-62
2022/01/20 11:12:52;;;;;;;;;;;4.10;99.90;;;;;;5114407;28;19923;-62
2022/01/20 11:15:20;;;;;;;;;;;4.10;99.90;;;;;;5115088;28;19924;-62
2022/01/20 11:17:51;;;;;;;;;;;4.10;99.90;;;;;;5115189;28;19931;-62
2022/01/20 11:20:18;;;;;;;;;;;4.10;99.90;;;;;;5114234;28;19985;-63
2022/01/20 11:22:53;;;;;;;;;;;4.00;99.90;;;;;;5114876;28;19923;-62
2022/01/20 11:25:21;;;;;;;;;;;4.00;99.90;;;;;;5113738;28;19972;-62
2022/01/20 11:27:46;;;;;;;;;;;4.00;99.90;;;;;;5115361;28;19930;-62
2022/01/20 11:30:13;;;;;;;;;;;3.90;99.90;;;;;;5115088;28;19924;-63
2022/01/20 11:32:39;;;;;;;;;;;4.10;99.90;;;;;;5114698;28;20034;-62
2022/01/20 11:35:05;;;;;;;;;;;4.10;99.90;;;;;;5114838;28;20432;-62
2022/01/20 11:37:34;;;;;;;;;;;4.30;99.90;;;;;;5114776;27;19927;-64
2022/01/20 11:40:11;;;;;;;;;;;4.40;99.90;;;;;;5114876;28;19924;-62
2022/01/20 11:42:37;;;;;;;;;;;4.40;99.90;;;;;;5114488;28;19924;-63
2022/01/20 11:45:21;;;;;;;;;;;4.30;99.90;;;;;;5114938;28;20284;-63
2022/01/20 11:47:47;;;;;;;;;;;4.10;99.90;;;;;;5096994;28;19928;-63
2022/01/20 11:50:19;;;;;;;;;;;4.00;99.90;;;;;;5114666;28;19924;-63
2022/01/20 11:52:45;;;;;;;;;;;4.00;99.90;;;;;;5114713;28;19923;-66
2022/01/20 11:55:11;;;;;;;;;;;4.00;99.90;;;;;;5114559;28;19923;-63
2022/01/20 11:57:37;;;;;;;;;;;4.00;99.90;;;;;;5112863;28;19927;-63
2022/01/20 12:00:16;;;;;;;;;;;4.20;99.90;;;;;;5114180;28;19931;-63
2022/01/20 12:02:41;;;;;;;;;;;4.30;99.90;;;;;;5113193;28;19930;-63
2022/01/20 12:05:19;;;;;;;;;;;4.30;99.90;;;;;;5113376;28;19924;-63
2022/01/20 12:07:45;;;;;;;;;;;4.20;99.90;;;;;;5112337;28;20388;-64
2022/01/20 12:10:15;;;;;;;;;;;4.00;99.90;;;;;;5114516;28;19930;-62
2022/01/20 12:12:41;;;;;;;;;;;3.80;99.90;;;;;;5114071;28;19993;-63
2022/01/20 12:15:08;;;;;;;;;;;3.70;99.90;;;;;;5114306;28;19947;-63
2022/01/20 12:17:33;;;;;;;;;;;3.70;99.90;;;;;;5112902;28;19981;-63
2022/01/20 12:19:59;;;;;;;;;;;3.70;99.90;;;;;;5113145;28;20039;-63
2022/01/20 12:22:25;;;;;;;;;;;3.80;99.90;;;;;;5112403;28;19934;-65
2022/01/20 12:24:55;;;;;;;;;;;4.00;99.90;;;;;;5114100;28;20377;-62
2022/01/20 12:27:22;;;;;;;;;;;4.10;99.90;;;;;;5114167;28;19946;-66
2022/01/20 12:29:48;;;;;;;;;;;4.20;99.90;;;;;;5114185;28;19934;-63
2022/01/20 12:32:15;;;;;;;;;;;4.20;99.90;;;;;;5113954;28;19927;-62
2022/01/20 12:34:40;;;;;;;;;;;4.20;99.90;;;;;;5113425;28;19967;-63
2022/01/20 12:37:06;;;;;;;;;;;4.30;99.90;;;;;;5114048;28;19975;-61
2022/01/20 12:39:34;;;;;;;;;;;4.30;99.90;;;;;;5113609;28;20014;-63
2022/01/20 12:42:01;;;;;;;;;;;4.40;99.90;;;;;;5114004;28;19924;-63
2022/01/20 12:44:39;;;;;;;;;;;4.40;99.90;;;;;;5112291;28;19927;-63
2022/01/20 12:47:04;;;;;;;;;;;4.40;99.90;;;;;;5113543;28;19932;-63
2022/01/20 12:49:30;;;;;;;;;;;4.50;99.90;;;;;;5113106;28;19932;-63
2022/01/20 12:51:56;;;;;;;;;;;4.50;99.90;;;;;;5113675;28;19985;-62
2022/01/20 12:54:26;;;;;;;;;;;4.60;99.90;;;;;;5113602;28;19997;-64
2022/01/20 12:56:53;;;;;;;;;;;4.60;99.90;;;;;;5113976;28;19953;-62
2022/01/20 12:59:25;;;;;;;;;;;4.60;99.90;;;;;;5112308;28;19923;-62
2022/01/20 13:01:51;;;;;;;;;;;4.60;99.90;;;;;;5112342;28;19923;-62
2022/01/20 13:04:18;;;;;;;;;;;4.60;99.90;;;;;;5112350;28;19930;-62
2022/01/20 13:06:46;;;;;;;;;;;4.70;99.90;;;;;;5112401;28;20023;-63
2022/01/20 13:09:12;;;;;;;;;;;4.40;99.90;;;;;;5112859;28;20436;-62
2022/01/20 13:11:42;;;;;;;;;;;4.10;99.90;;;;;;5113004;28;19951;-62
2022/01/20 13:14:08;;;;;;;;;;;3.90;99.90;;;;;;5113305;28;19946;-63
2022/01/20 13:16:34;;;;;;;;;;;3.70;99.90;;;;;;5112744;28;19981;-62
2022/01/20 13:19:01;;;;;;;;;;;3.60;99.90;;;;;;5113007;28;19927;-62
2022/01/20 13:21:37;;;;;;;;;;;3.50;99.90;;;;;;5112993;28;19969;-62
2022/01/20 13:24:06;;;;;;;;;;;3.50;99.90;;;;;;5112614;27;19946;-64
2022/01/20 13:26:43;;;;;;;;;;;3.50;99.90;;;;;;5111285;28;20315;-62
2022/01/20 13:29:08;;;;;;;;;;;3.50;99.90;;;;;;5112598;28;19978;-63
2022/01/20 13:31:34;;;;;;;;;;;3.60;99.90;;;;;;5110914;28;19970;-63
2022/01/20 13:34:06;;;;;;;;;;;3.70;99.90;;;;;;5111650;28;19930;-62
2022/01/20 13:36:39;;;;;;;;;;;3.90;99.90;;;;;;5112286;28;19924;-65
2022/01/20 13:39:05;;;;;;;;;;;3.90;99.90;;;;;;5094509;28;19924;-62
2022/01/20 13:41:31;;;;;;;;;;;3.90;99.90;;;;;;5112133;28;19924;-62
2022/01/20 13:46:44;;;;;;;;;;;3.70;99.90;;;;;;5112174;28;19924;-62
2022/01/20 13:49:13;;;;;;;;;;;3.60;99.90;;;;;;5111514;28;20467;-61
2022/01/20 13:51:39;;;;;;;;;;;3.60;99.90;;;;;;5111817;28;19923;-62
2022/01/20 13:54:05;;;;;;;;;;;3.60;99.90;;;;;;5112491;27;19924;-62
2022/01/20 13:56:31;;;;;;;;;;;3.70;99.90;;;;;;5110876;28;19989;-62
2022/01/20 13:59:05;;;;;;;;;;;3.80;99.90;;;;;;5094178;28;19930;-61
2022/01/20 14:01:30;;;;;;;;;;;3.80;99.90;;;;;;5112362;28;19943;-62
2022/01/20 14:03:56;;;;;;;;;;;3.90;99.90;;;;;;5111763;28;20271;-62
2022/01/20 14:06:22;;;;;;;;;;;4.00;99.90;;;;;;5111941;28;19923;-61
2022/01/20 14:08:48;;;;;;;;;;;4.00;99.90;;;;;;5110392;28;20257;-62
2022/01/20 14:11:14;;;;;;;;;;;4.00;99.90;;;;;;5110908;28;19980;-62
2022/01/20 14:13:40;;;;;;;;;;;4.10;99.90;;;;;;5109488;28;19930;-62
2022/01/20 14:16:05;;;;;;;;;;;4.00;99.90;;;;;;5110440;28;19939;-64
2022/01/20 14:18:40;;;;;;;;;;;4.00;99.90;;;;;;5112095;28;19947;-62
2022/01/20 14:21:07;;;;;;;;;;;4.00;99.90;;;;;;5111499;28;19931;-62
2022/01/20 14:23:32;;;;;;;;;;;4.00;99.90;;;;;;5094024;28;19924;-62
2022/01/20 14:26:00;;;;;;;;;;;3.80;99.90;;;;;;5111348;28;20496;-62
2022/01/20 14:28:26;;;;;;;;;;;3.80;99.90;;;;;;5112299;28;19924;-62
2022/01/20 14:30:51;;;;;;;;;;;3.60;99.90;;;;;;5114013;28;19931;-62
2022/01/20 14:33:17;;;;;;;;;;;3.60;99.90;;;;;;5115870;28;20290;-62
2022/01/20 14:35:44;;;;;;;;;;;3.70;99.90;;;;;;5115415;28;20341;-65
2022/01/20 14:38:10;;;;;;;;;;;3.80;99.90;;;;;;5098245;28;19939;-62
2022/01/20 14:40:36;;;;;;;;;;;4.00;99.90;;;;;;5115906;28;20113;-63
2022/01/20 14:43:01;;;;;;;;;;;3.50;99.90;;;;;;5115437;28;19938;-61
2022/01/20 14:45:27;;;;;;;;;;;3.50;99.90;;;;;;5116095;28;19939;-62
2022/01/20 14:47:53;;;;;;;;;;;3.30;99.90;;;;;;5115550;28;19923;-62
2022/01/20 14:50:20;;;;;;;;;;;3.30;99.90;;;;;;5115131;28;20356;-61
2022/01/20 14:52:46;;;;;;;;;;;3.30;99.90;;;;;;5097532;28;19943;-62
2022/01/20 14:55:11;;;;;;;;;;;3.40;99.90;;;;;;5115999;28;19924;-63
2022/01/20 14:57:37;;;;;;;;;;;3.50;99.90;;;;;;5114665;28;19930;-63
2022/01/20 15:00:05;;;;;;;;;;;3.60;99.90;;;;;;5115442;28;19983;-62
2022/01/20 15:02:30;;;;;;;;;;;3.60;99.90;;;;;;5115818;28;19924;-62
2022/01/20 15:04:56;;;;;;;;;;;3.70;99.90;;;;;;5114021;28;19938;-62
2022/01/20 15:07:22;;;;;;;;;;;3.70;99.90;;;;;;5114282;28;19985;-62
2022/01/20 15:09:48;;;;;;;;;;;3.70;99.90;;;;;;5115456;27;20351;-62
2022/01/20 15:12:14;;;;;;;;;;;3.70;99.90;;;;;;5115574;28;20034;-62
2022/01/20 15:14:40;;;;;;;;;;;3.70;99.90;;;;;;5115357;28;19924;-62
2022/01/20 15:17:05;;;;;;;;;;;3.70;99.90;;;;;;5115215;28;20016;-62
2022/01/20 15:19:32;;;;;;;;;;;3.60;99.90;;;;;;5114471;28;19923;-62
2022/01/20 15:21:58;;;;;;;;;;;3.60;99.90;;;;;;5114885;28;19923;-62
2022/01/20 15:24:25;;;;;;;;;;;3.70;99.90;;;;;;5114882;28;19928;-62
2022/01/20 15:26:51;;;;;;;;;;;3.60;99.90;;;;;;5114735;28;20510;-62
2022/01/20 15:29:17;;;;;;;;;;;3.60;99.90;;;;;;5113962;28;20331;-63
2022/01/20 15:31:43;;;;;;;;;;;3.60;99.90;;;;;;5115071;28;19923;-62
2022/01/20 15:34:11;;;;;;;;;;;3.60;99.90;;;;;;5113454;28;20014;-62
2022/01/20 15:36:37;;;;;;;;;;;3.70;99.90;;;;;;5113963;28;20386;-62